Time;durP1;ratioP1;P1;durP2;ratioP2;P2;SDS_P1;SDS_P2;PMS_P1;PMS_P2;Temp;Humidity;BMP_temperature;BMP_pressure;BME280_temperature;BME280_humidity;BME280_pressure;Samples;Min_cycle;Max_cycle;Signal;HPM_P1;HPM_P2
2020/12/06 00:02:04;;;;;;;27.80;20.27;;;3.70;99.90;;;;;;5100789;28;20179;-74
2020/12/06 00:04:29;;;;;;;31.90;20.17;;;3.70;99.90;;;;;;5098115;28;20176;-74
2020/12/06 00:06:56;;;;;;;33.03;19.10;;;3.60;99.90;;;;;;5098079;28;20209;-73
2020/12/06 00:09:22;;;;;;;30.77;19.67;;;3.60;99.90;;;;;;5096762;28;20190;-73
2020/12/06 00:11:47;;;;;;;30.60;20.13;;;3.60;99.90;;;;;;5095026;27;20386;-74
2020/12/06 00:14:13;;;;;;;25.87;20.03;;;3.60;99.90;;;;;;5100553;27;20202;-76
2020/12/06 00:16:39;;;;;;;27.40;19.40;;;3.60;99.90;;;;;;5100346;28;20213;-76
2020/12/06 00:19:05;;;;;;;30.00;20.83;;;3.60;99.90;;;;;;5105965;28;20235;-75
2020/12/06 00:21:30;;;;;;;32.50;20.90;;;3.70;99.90;;;;;;5102065;27;20175;-75
2020/12/06 00:23:56;;;;;;;32.20;21.60;;;3.70;99.90;;;;;;5097272;28;20445;-76
2020/12/06 00:26:24;;;;;;;35.07;22.07;;;3.60;99.90;;;;;;5110746;28;20200;-76
2020/12/06 00:28:51;;;;;;;29.63;21.83;;;3.70;99.90;;;;;;5096191;27;20230;-73
2020/12/06 00:31:17;;;;;;;28.60;19.50;;;3.60;99.90;;;;;;5109017;27;20395;-76
2020/12/06 00:33:43;;;;;;;32.67;21.00;;;3.60;99.90;;;;;;5099949;28;20443;-76
2020/12/06 00:36:10;;;;;;;30.33;19.43;;;3.60;99.90;;;;;;5098971;27;20408;-74
2020/12/06 00:38:36;;;;;;;30.93;20.03;;;3.60;99.90;;;;;;5105549;27;20392;-74
2020/12/06 00:41:02;;;;;;;33.43;22.77;;;3.70;99.90;;;;;;5108129;27;20480;-73
2020/12/06 00:43:28;;;;;;;34.90;22.50;;;3.70;99.90;;;;;;5116018;27;20442;-73
2020/12/06 00:45:53;;;;;;;32.13;21.70;;;3.60;99.90;;;;;;5097778;28;20180;-78
2020/12/06 00:48:19;;;;;;;30.20;19.83;;;3.60;99.90;;;;;;5126827;27;20176;-77
2020/12/06 00:50:45;;;;;;;29.77;19.90;;;3.60;99.90;;;;;;5098980;28;20265;-73
2020/12/06 00:53:10;;;;;;;27.87;20.00;;;3.60;99.90;;;;;;5107139;27;20206;-75
2020/12/06 00:55:36;;;;;;;31.07;19.23;;;3.60;99.90;;;;;;5113793;27;20589;-76
2020/12/06 00:58:02;;;;;;;27.10;18.87;;;3.70;99.90;;;;;;5109443;28;20192;-76
2020/12/06 01:00:27;;;;;;;32.00;20.57;;;3.80;99.90;;;;;;5109556;28;20572;-76
2020/12/06 01:02:53;;;;;;;30.47;19.40;;;3.80;99.90;;;;;;5102136;28;20199;-74
2020/12/06 01:05:19;;;;;;;30.33;20.37;;;3.70;99.90;;;;;;5097492;28;20172;-73
2020/12/06 01:07:44;;;;;;;26.70;18.80;;;3.70;99.90;;;;;;5093610;28;20177;-74
2020/12/06 01:10:11;;;;;;;32.77;21.80;;;3.70;99.90;;;;;;5093923;28;20204;-75
2020/12/06 01:12:38;;;;;;;27.60;19.47;;;3.70;99.90;;;;;;5094290;28;20203;-74
2020/12/06 01:15:08;;;;;;;34.60;21.67;;;3.70;99.90;;;;;;5105558;28;20392;-74
2020/12/06 01:17:34;;;;;;;30.10;19.70;;;3.70;99.90;;;;;;5096415;28;20575;-75
2020/12/06 01:20:00;;;;;;;34.57;21.33;;;3.70;99.90;;;;;;5101631;27;20457;-76
2020/12/06 01:22:26;;;;;;;34.23;21.67;;;3.70;99.90;;;;;;5109054;28;20436;-74
2020/12/06 01:24:52;;;;;;;34.50;21.23;;;3.70;99.90;;;;;;5105818;27;20448;-78
2020/12/06 01:27:18;;;;;;;31.37;20.77;;;3.60;99.90;;;;;;5123943;27;20183;-77
2020/12/06 01:29:44;;;;;;;31.60;20.50;;;3.60;99.90;;;;;;5111342;27;20172;-76
2020/12/06 01:32:09;;;;;;;28.90;19.37;;;3.70;99.90;;;;;;5108081;28;20635;-76
2020/12/06 01:34:35;;;;;;;29.60;19.50;;;3.70;99.90;;;;;;5097436;27;20403;-74
2020/12/06 01:37:00;;;;;;;31.07;20.10;;;3.70;99.90;;;;;;5105316;28;20179;-76
2020/12/06 01:39:26;;;;;;;34.13;20.63;;;3.70;99.90;;;;;;5104695;27;20205;-73
2020/12/06 01:41:58;;;;;;;27.17;18.60;;;3.70;99.90;;;;;;5105937;28;20209;-73
2020/12/06 01:44:28;;;;;;;34.27;20.30;;;3.70;99.90;;;;;;5112767;27;20176;-73
2020/12/06 01:46:55;;;;;;;31.97;21.20;;;3.80;99.90;;;;;;5117597;27;20478;-77
2020/12/06 01:49:23;;;;;;;32.90;21.07;;;3.70;99.90;;;;;;5108598;27;20426;-77
2020/12/06 01:51:57;;;;;;;29.20;20.83;;;3.70;99.90;;;;;;5110150;27;20444;-76
2020/12/06 01:54:23;;;;;;;33.03;20.87;;;3.70;99.90;;;;;;5109259;28;20431;-76
2020/12/06 01:56:49;;;;;;;28.50;19.53;;;3.60;99.90;;;;;;5100903;28;20431;-74
2020/12/06 01:59:16;;;;;;;36.90;22.80;;;3.60;99.90;;;;;;5119055;27;20211;-75
2020/12/06 02:01:53;;;;;;;35.17;22.87;;;3.60;99.90;;;;;;5105092;27;20390;-77
2020/12/06 02:04:19;;;;;;;40.10;24.37;;;3.60;99.90;;;;;;5118687;27;20455;-75
2020/12/06 02:06:45;;;;;;;39.40;22.77;;;3.60;99.90;;;;;;5123046;27;20392;-75
2020/12/06 02:09:11;;;;;;;32.10;21.70;;;3.60;99.90;;;;;;5127422;27;20207;-76
2020/12/06 02:11:38;;;;;;;34.17;22.30;;;3.60;99.90;;;;;;5104781;28;20421;-76
2020/12/06 02:14:03;;;;;;;37.23;22.63;;;3.50;99.90;;;;;;5096266;28;20435;-73
2020/12/06 02:16:29;;;;;;;34.30;20.77;;;3.60;99.90;;;;;;5100273;27;20424;-73
2020/12/06 02:18:55;;;;;;;36.73;23.00;;;3.50;99.90;;;;;;5100470;28;20203;-76
2020/12/06 02:21:20;;;;;;;38.37;23.83;;;3.50;99.90;;;;;;5104471;28;20569;-74
2020/12/06 02:23:46;;;;;;;38.90;22.20;;;3.60;99.90;;;;;;5106149;27;20224;-76
2020/12/06 02:26:11;;;;;;;44.10;23.60;;;3.50;99.90;;;;;;5125016;27;20266;-72
2020/12/06 02:28:37;;;;;;;36.70;22.60;;;3.50;99.90;;;;;;5109375;27;20183;-76
2020/12/06 02:31:03;;;;;;;35.57;23.20;;;3.50;99.90;;;;;;5121728;27;20683;-76
2020/12/06 02:33:28;;;;;;;38.23;23.13;;;3.40;99.90;;;;;;5095155;28;20208;-72
2020/12/06 02:35:54;;;;;;;36.07;22.90;;;3.40;99.90;;;;;;5126067;27;20253;-77
2020/12/06 02:38:20;;;;;;;40.57;23.00;;;3.40;99.90;;;;;;5109105;28;20180;-74
2020/12/06 02:40:46;;;;;;;38.73;23.00;;;3.40;99.90;;;;;;5101873;28;20545;-74
2020/12/06 02:43:11;;;;;;;43.10;24.03;;;3.40;99.90;;;;;;5109629;27;20217;-77
2020/12/06 02:45:37;;;;;;;36.60;22.40;;;3.40;99.90;;;;;;5116242;27;20181;-76
2020/12/06 02:48:03;;;;;;;39.30;24.70;;;3.40;99.90;;;;;;5129841;27;20175;-78
2020/12/06 02:50:28;;;;;;;40.87;23.27;;;3.40;99.90;;;;;;5095754;28;20651;-77
2020/12/06 02:52:57;;;;;;;44.70;24.20;;;3.40;99.90;;;;;;5103599;27;20203;-78
2020/12/06 02:55:27;;;;;;;36.07;22.37;;;3.40;99.90;;;;;;5102664;27;20181;-74
2020/12/06 02:57:53;;;;;;;36.77;22.40;;;3.40;99.90;;;;;;5125522;27;20433;-73
2020/12/06 03:00:19;;;;;;;37.07;21.40;;;3.40;99.90;;;;;;5104651;28;20465;-74
2020/12/06 03:02:44;;;;;;;47.80;25.13;;;3.40;99.90;;;;;;5107339;27;20464;-74
2020/12/06 03:05:11;;;;;;;39.93;23.17;;;3.30;99.90;;;;;;5096531;27;20400;-76
2020/12/06 03:07:36;;;;;;;43.50;22.63;;;3.30;99.90;;;;;;5098253;28;20248;-76
2020/12/06 03:10:06;;;;;;;48.10;25.67;;;3.30;99.90;;;;;;5111735;27;20391;-74
2020/12/06 03:12:34;;;;;;;49.00;26.60;;;3.20;99.90;;;;;;5099438;27;20562;-74
2020/12/06 03:15:00;;;;;;;46.23;25.77;;;3.20;99.90;;;;;;5110789;27;20407;-74
2020/12/06 03:17:25;;;;;;;44.70;25.40;;;3.20;99.90;;;;;;5110978;27;20395;-73
2020/12/06 03:19:51;;;;;;;47.90;26.00;;;3.20;99.90;;;;;;5099618;28;20854;-73
2020/12/06 03:22:16;;;;;;;52.00;25.40;;;3.20;99.90;;;;;;5099069;28;20202;-73
2020/12/06 03:24:42;;;;;;;56.03;25.40;;;3.20;99.90;;;;;;5118616;27;20199;-73
2020/12/06 03:27:08;;;;;;;53.27;25.83;;;3.10;99.90;;;;;;5120275;27;20610;-74
2020/12/06 03:29:33;;;;;;;54.60;25.87;;;3.10;99.90;;;;;;5103490;27;20209;-74
2020/12/06 03:31:59;;;;;;;48.60;25.10;;;3.10;99.90;;;;;;5107586;28;20183;-74
2020/12/06 03:34:25;;;;;;;55.73;24.83;;;3.10;99.90;;;;;;5110466;27;20186;-76
2020/12/06 03:36:50;;;;;;;55.00;26.10;;;3.10;99.90;;;;;;5099670;28;20171;-76
2020/12/06 03:39:16;;;;;;;55.50;25.47;;;3.10;99.90;;;;;;5102741;28;20184;-77
2020/12/06 03:41:46;;;;;;;56.90;25.40;;;3.00;99.90;;;;;;5098919;28;20235;-78
2020/12/06 03:44:12;;;;;;;48.53;24.57;;;3.00;99.90;;;;;;5090981;27;20258;-77
2020/12/06 03:46:38;;;;;;;52.73;25.10;;;3.00;99.90;;;;;;5109762;27;20428;-78
2020/12/06 03:49:03;;;;;;;68.17;26.30;;;3.00;99.90;;;;;;5105913;27;20404;-76
2020/12/06 03:51:29;;;;;;;61.43;27.60;;;3.00;99.90;;;;;;5110180;28;20388;-75
2020/12/06 03:53:55;;;;;;;56.03;26.27;;;3.00;99.90;;;;;;5096117;27;20203;-75
2020/12/06 03:56:20;;;;;;;56.53;26.57;;;3.00;99.90;;;;;;5097701;27;20226;-73
2020/12/06 03:58:46;;;;;;;60.53;27.17;;;3.00;99.90;;;;;;5109006;27;20175;-74
2020/12/06 04:01:12;;;;;;;56.57;26.57;;;2.90;99.90;;;;;;5073876;28;20291;-74
2020/12/06 04:03:37;;;;;;;61.50;28.80;;;2.90;99.90;;;;;;5090954;27;20198;-73
2020/12/06 04:06:03;;;;;;;60.70;28.70;;;2.80;99.90;;;;;;5113301;27;20703;-78
2020/12/06 04:08:29;;;;;;;63.67;28.90;;;2.80;99.90;;;;;;5110190;27;20651;-78
2020/12/06 04:10:54;;;;;;;59.13;29.27;;;2.90;99.90;;;;;;5094496;27;20595;-77
2020/12/06 04:13:20;;;;;;;63.70;28.23;;;2.90;99.90;;;;;;5101969;28;20261;-76
2020/12/06 04:15:46;;;;;;;55.87;24.40;;;2.90;99.90;;;;;;5101039;27;20186;-74
2020/12/06 04:18:12;;;;;;;54.30;26.73;;;2.90;99.90;;;;;;5101973;28;20201;-77
2020/12/06 04:20:37;;;;;;;55.83;25.60;;;2.90;99.90;;;;;;5104596;27;20199;-75
2020/12/06 04:23:03;;;;;;;61.00;27.50;;;2.90;99.90;;;;;;5099487;28;20480;-73
2020/12/06 04:25:29;;;;;;;52.60;25.77;;;2.90;99.90;;;;;;5094330;28;20187;-78
2020/12/06 04:27:54;;;;;;;63.73;28.80;;;2.90;99.90;;;;;;5116944;27;20189;-76
2020/12/06 04:30:20;;;;;;;54.97;25.97;;;2.90;99.90;;;;;;5093307;28;20183;-78
2020/12/06 04:32:46;;;;;;;62.17;27.20;;;2.90;99.90;;;;;;5100477;27;20207;-73
2020/12/06 04:35:11;;;;;;;49.40;23.43;;;2.90;99.90;;;;;;5104140;27;20202;-77
2020/12/06 04:37:37;;;;;;;53.80;26.50;;;2.90;99.90;;;;;;5097223;27;20183;-73
2020/12/06 04:40:03;;;;;;;55.63;26.97;;;2.90;99.90;;;;;;5096849;28;20332;-76
2020/12/06 04:42:29;;;;;;;63.70;27.93;;;2.90;99.90;;;;;;5096462;28;20206;-76
2020/12/06 04:44:55;;;;;;;57.73;27.83;;;2.90;99.90;;;;;;5104564;27;20449;-77
2020/12/06 04:47:42;;;;;;;65.37;26.70;;;2.90;99.90;;;;;;5094141;28;20933;-76
2020/12/06 04:50:14;;;;;;;54.17;26.13;;;2.90;99.90;;;;;;5120344;27;20794;-76
2020/12/06 04:52:44;;;;;;;60.37;27.60;;;2.90;99.90;;;;;;5089929;28;20434;-73
2020/12/06 04:55:13;;;;;;;55.43;26.13;;;2.90;99.90;;;;;;5099020;28;20769;-73
2020/12/06 04:57:40;;;;;;;71.70;32.53;;;2.90;99.90;;;;;;5101697;28;20780;-74
2020/12/06 05:00:08;;;;;;;51.43;26.37;;;2.80;99.90;;;;;;5103132;28;20436;-77
2020/12/06 05:02:38;;;;;;;63.43;28.17;;;2.80;99.90;;;;;;5109207;28;20422;-77
2020/12/06 05:05:05;;;;;;;59.30;26.70;;;2.80;99.90;;;;;;5093658;28;20436;-77
2020/12/06 05:07:34;;;;;;;64.77;28.83;;;2.80;99.90;;;;;;5097140;28;20417;-73
2020/12/06 05:10:00;;;;;;;56.00;25.97;;;2.90;99.90;;;;;;5089614;28;21002;-74
2020/12/06 05:12:26;;;;;;;54.83;26.27;;;2.80;99.90;;;;;;5100942;28;20463;-73
2020/12/06 05:14:52;;;;;;;52.10;25.87;;;2.80;99.90;;;;;;5094143;28;20785;-73
2020/12/06 05:17:18;;;;;;;55.37;26.70;;;2.90;99.90;;;;;;5119512;28;20505;-76
2020/12/06 05:19:45;;;;;;;52.53;27.17;;;2.90;99.90;;;;;;5099425;28;20979;-77
2020/12/06 05:22:10;;;;;;;61.10;28.47;;;2.90;99.90;;;;;;5095676;28;21098;-77
2020/12/06 05:24:36;;;;;;;50.07;26.70;;;2.90;99.90;;;;;;5103942;28;20485;-74
2020/12/06 05:27:02;;;;;;;56.17;27.37;;;2.90;99.90;;;;;;5105847;28;20243;-76
2020/12/06 05:29:28;;;;;;;61.50;27.27;;;2.80;99.90;;;;;;5105345;28;20171;-76
2020/12/06 05:31:58;;;;;;;54.33;27.03;;;2.80;99.90;;;;;;5118471;27;20191;-78
2020/12/06 05:34:24;;;;;;;49.30;25.90;;;2.80;99.90;;;;;;5104570;28;20707;-77
2020/12/06 05:36:50;;;;;;;60.27;26.03;;;2.80;99.90;;;;;;5094790;28;20438;-77
2020/12/06 05:39:20;;;;;;;49.03;25.90;;;2.80;99.90;;;;;;5072953;28;20204;-76
2020/12/06 05:41:47;;;;;;;51.33;25.90;;;2.80;99.90;;;;;;5092302;28;20190;-73
2020/12/06 05:44:19;;;;;;;60.70;27.40;;;2.80;99.90;;;;;;5092258;28;20969;-77
2020/12/06 05:46:44;;;;;;;50.50;25.37;;;2.90;99.90;;;;;;5102822;28;20413;-74
2020/12/06 05:49:10;;;;;;;55.80;24.53;;;2.80;99.90;;;;;;5092518;28;20448;-75
2020/12/06 05:51:35;;;;;;;49.30;24.33;;;2.80;99.90;;;;;;5114112;28;20636;-75
2020/12/06 05:54:01;;;;;;;58.03;26.70;;;2.80;99.90;;;;;;5114216;28;20719;-73
2020/12/06 05:56:28;;;;;;;58.40;27.47;;;2.90;99.90;;;;;;5122881;28;20214;-74
2020/12/06 05:58:54;;;;;;;54.50;24.30;;;2.90;99.90;;;;;;5107922;27;20225;-77
2020/12/06 06:01:21;;;;;;;54.23;28.03;;;2.90;99.90;;;;;;5108064;28;20464;-78
2020/12/06 06:03:52;;;;;;;57.27;27.27;;;2.90;99.90;;;;;;5100182;28;20710;-78
2020/12/06 06:06:35;;;;;;;52.23;26.70;;;2.90;99.90;;;;;;5101443;28;20741;-75
2020/12/06 06:09:02;;;;;;;50.23;24.70;;;3.00;99.90;;;;;;5084210;28;20935;-75
2020/12/06 06:11:29;;;;;;;51.70;25.17;;;3.00;99.90;;;;;;5120978;27;20732;-75
2020/12/06 06:13:58;;;;;;;58.33;27.10;;;3.00;99.90;;;;;;5104586;28;20938;-79
2020/12/06 06:16:26;;;;;;;55.47;25.70;;;3.00;99.90;;;;;;5109052;27;20399;-78
2020/12/06 06:18:53;;;;;;;52.93;25.93;;;3.00;99.90;;;;;;5108812;27;20429;-74
2020/12/06 06:21:24;;;;;;;58.00;27.20;;;3.00;99.90;;;;;;5105955;27;20492;-74
2020/12/06 06:23:52;;;;;;;48.80;23.60;;;3.00;99.90;;;;;;5107700;27;20885;-75
2020/12/06 06:26:20;;;;;;;47.87;25.67;;;3.00;99.90;;;;;;5116545;27;20390;-74
2020/12/06 06:28:46;;;;;;;50.17;26.33;;;3.00;99.90;;;;;;5116218;27;20402;-79
2020/12/06 06:31:14;;;;;;;58.13;26.93;;;3.00;99.90;;;;;;5105661;27;20822;-74
2020/12/06 06:33:40;;;;;;;48.80;25.10;;;3.00;99.90;;;;;;5092335;27;20199;-74
2020/12/06 06:36:09;;;;;;;49.13;24.97;;;3.00;99.90;;;;;;5095902;28;20430;-77
2020/12/06 06:38:54;;;;;;;54.73;26.03;;;3.00;99.90;;;;;;5115933;27;20403;-78
2020/12/06 06:41:23;;;;;;;49.63;24.97;;;3.00;99.90;;;;;;5109079;28;20465;-75
2020/12/06 06:43:49;;;;;;;54.30;26.43;;;3.00;99.90;;;;;;5092019;28;20452;-75
2020/12/06 06:46:18;;;;;;;51.03;25.23;;;3.10;99.90;;;;;;5117938;27;20455;-78
2020/12/06 06:48:46;;;;;;;49.10;24.70;;;3.10;99.90;;;;;;5103327;27;20177;-74
2020/12/06 06:51:21;;;;;;;58.23;27.80;;;3.10;99.90;;;;;;5093483;28;20541;-74
2020/12/06 06:53:48;;;;;;;63.80;25.87;;;3.10;99.90;;;;;;5102765;28;20504;-78
2020/12/06 06:56:18;;;;;;;57.80;26.13;;;3.10;99.90;;;;;;5092453;27;20409;-75
2020/12/06 06:58:48;;;;;;;51.70;25.90;;;3.20;99.90;;;;;;5094364;27;20430;-78
2020/12/06 07:01:23;;;;;;;58.00;24.57;;;3.20;99.90;;;;;;5110709;27;20460;-78
2020/12/06 07:03:55;;;;;;;58.00;25.33;;;3.10;99.90;;;;;;5089335;27;20447;-74
2020/12/06 07:06:43;;;;;;;55.67;25.03;;;3.20;99.90;;;;;;5112142;27;20431;-78
2020/12/06 07:09:08;;;;;;;59.63;25.83;;;3.20;99.90;;;;;;5093888;27;20489;-74
2020/12/06 07:11:34;;;;;;;56.00;26.63;;;3.20;99.90;;;;;;5110014;28;20676;-73
2020/12/06 07:14:01;;;;;;;59.13;25.60;;;3.30;99.90;;;;;;5097316;27;20214;-75
2020/12/06 07:16:27;;;;;;;53.07;24.30;;;3.30;99.90;;;;;;5102127;27;20175;-75
2020/12/06 07:18:52;;;;;;;50.60;23.70;;;3.30;99.90;;;;;;5121291;27;20501;-78
2020/12/06 07:21:18;;;;;;;55.77;23.77;;;3.40;99.90;;;;;;5101315;28;20211;-75
2020/12/06 07:23:43;;;;;;;57.80;24.57;;;3.30;99.90;;;;;;5092048;28;20318;-74
2020/12/06 07:26:10;;;;;;;66.87;25.87;;;3.30;99.90;;;;;;5103886;28;20187;-76
2020/12/06 07:28:35;;;;;;;48.93;22.00;;;3.30;99.90;;;;;;5114600;28;20682;-78
2020/12/06 07:31:01;;;;;;;53.67;23.33;;;3.30;99.90;;;;;;5095137;28;20404;-75
2020/12/06 07:33:27;;;;;;;60.77;24.70;;;3.30;99.90;;;;;;5095021;28;20559;-78
2020/12/06 07:35:52;;;;;;;53.90;23.77;;;3.30;99.90;;;;;;5095025;28;20259;-78
2020/12/06 07:38:18;;;;;;;58.17;21.80;;;3.40;99.90;;;;;;5113749;27;20198;-75
2020/12/06 07:40:44;;;;;;;58.30;22.90;;;3.30;99.90;;;;;;5105884;27;20503;-75
2020/12/06 07:43:11;;;;;;;58.10;21.17;;;3.30;99.90;;;;;;5089308;27;20205;-74
2020/12/06 07:45:37;;;;;;;50.33;22.00;;;3.40;99.90;;;;;;5095480;28;20530;-78
2020/12/06 07:48:03;;;;;;;57.73;23.57;;;3.40;99.90;;;;;;5094658;28;20423;-78
2020/12/06 07:50:29;;;;;;;52.27;19.57;;;3.40;99.90;;;;;;5094629;28;20184;-80
2020/12/06 07:53:01;;;;;;;42.13;19.10;;;3.40;99.90;;;;;;5112877;28;20993;-78
2020/12/06 07:55:27;;;;;;;54.93;20.90;;;3.40;99.90;;;;;;5094596;28;20183;-79
2020/12/06 07:57:56;;;;;;;44.03;18.97;;;3.40;99.90;;;;;;5094878;28;20394;-78
2020/12/06 08:00:37;;;;;;;50.43;20.40;;;3.50;99.90;;;;;;5115097;27;20296;-79
2020/12/06 08:03:05;;;;;;;48.17;19.73;;;3.40;99.90;;;;;;5114906;27;20451;-77
2020/12/06 08:05:34;;;;;;;41.73;17.57;;;3.50;99.90;;;;;;5101882;27;20769;-77
2020/12/06 08:08:34;;;;;;;56.80;20.07;;;3.40;99.90;;;;;;5099496;27;20469;-76
2020/12/06 08:11:02;;;;;;;47.50;19.33;;;3.40;99.90;;;;;;5089712;28;20406;-74
2020/12/06 08:13:28;;;;;;;60.43;21.37;;;3.40;99.90;;;;;;5097557;27;20436;-74
2020/12/06 08:16:05;;;;;;;56.63;22.13;;;3.50;99.90;;;;;;5110312;27;20424;-74
2020/12/06 08:18:30;;;;;;;58.03;20.53;;;3.50;99.90;;;;;;5077045;28;20511;-77
2020/12/06 08:20:56;;;;;;;51.80;19.43;;;3.50;99.90;;;;;;5080293;27;20524;-75
2020/12/06 08:23:44;;;;;;;51.63;18.83;;;3.50;99.90;;;;;;5100502;28;20253;-74
2020/12/06 08:26:10;;;;;;;50.83;19.07;;;3.50;99.90;;;;;;5106179;28;20591;-75
2020/12/06 08:28:36;;;;;;;70.00;27.20;;;3.50;99.90;;;;;;5094354;28;20415;-76
2020/12/06 08:31:19;;;;;;;99.73;42.37;;;3.50;99.90;;;;;;5093458;28;20663;-75
2020/12/06 08:33:45;;;;;;;149.00;65.00;;;3.50;99.90;;;;;;5093637;28;20270;-79
2020/12/06 08:36:23;;;;;;;62.43;25.73;;;3.60;99.90;;;;;;5093858;28;20434;-78
2020/12/06 08:38:48;;;;;;;50.50;18.73;;;3.60;99.90;;;;;;5093755;28;20186;-77
2020/12/06 08:41:14;;;;;;;61.83;28.10;;;3.60;99.90;;;;;;5102385;28;20468;-76
2020/12/06 08:43:45;;;;;;;45.70;18.93;;;3.60;99.90;;;;;;5095894;28;20206;-78
2020/12/06 08:46:13;;;;;;;55.73;18.30;;;3.60;99.90;;;;;;5098935;27;20177;-79
2020/12/06 08:48:39;;;;;;;50.73;19.03;;;3.60;99.90;;;;;;5100486;28;20412;-78
2020/12/06 08:51:05;;;;;;;43.50;19.20;;;3.60;99.90;;;;;;5094220;28;20423;-79
2020/12/06 08:53:44;;;;;;;41.07;18.00;;;3.60;99.90;;;;;;5097389;28;20746;-75
2020/12/06 08:56:26;;;;;;;47.50;18.50;;;3.60;99.90;;;;;;5087551;28;20195;-79
2020/12/06 08:58:52;;;;;;;52.37;19.70;;;3.70;99.90;;;;;;5113623;27;20409;-76
2020/12/06 09:01:17;;;;;;;48.00;20.10;;;3.70;99.90;;;;;;5107085;28;20472;-76
2020/12/06 09:03:43;;;;;;;49.07;19.60;;;3.70;99.90;;;;;;5091327;28;20307;-78
2020/12/06 09:06:18;;;;;;;52.73;19.93;;;3.70;99.90;;;;;;5073393;28;20682;-75
2020/12/06 09:08:44;;;;;;;49.07;17.83;;;3.70;99.90;;;;;;5084523;28;20177;-79
2020/12/06 09:11:22;;;;;;;49.37;18.57;;;3.80;99.90;;;;;;5113682;28;20892;-79
2020/12/06 09:13:49;;;;;;;49.23;16.80;;;3.80;99.90;;;;;;5089388;28;20536;-79
2020/12/06 09:16:15;;;;;;;41.20;17.20;;;3.80;99.90;;;;;;5093393;28;20865;-78
2020/12/06 09:18:41;;;;;;;46.13;17.13;;;3.80;99.90;;;;;;5089677;28;20416;-79
2020/12/06 09:21:07;;;;;;;46.73;15.67;;;3.90;99.90;;;;;;5109284;28;20919;-75
2020/12/06 09:23:34;;;;;;;42.07;16.33;;;3.90;99.90;;;;;;5088955;28;20439;-75
2020/12/06 09:26:00;;;;;;;36.73;15.50;;;3.90;99.90;;;;;;5096574;28;20416;-79
2020/12/06 09:28:27;;;;;;;44.00;14.57;;;3.90;99.90;;;;;;5105672;28;20956;-79
2020/12/06 09:30:53;;;;;;;35.70;14.97;;;3.90;99.90;;;;;;5097480;28;20388;-78
2020/12/06 09:33:20;;;;;;;36.63;13.60;;;3.90;99.90;;;;;;5089017;28;20924;-79
2020/12/06 09:35:45;;;;;;;30.50;12.80;;;3.90;99.90;;;;;;5096605;28;20394;-78
2020/12/06 09:38:11;;;;;;;29.20;11.90;;;4.00;99.90;;;;;;5100282;28;20779;-78
2020/12/06 09:40:37;;;;;;;24.00;11.73;;;4.00;99.90;;;;;;5095434;28;20257;-77
2020/12/06 09:43:03;;;;;;;21.00;11.03;;;4.00;99.90;;;;;;5096037;28;20252;-77
2020/12/06 09:45:29;;;;;;;23.77;11.30;;;4.10;99.90;;;;;;5103090;27;20175;-75
2020/12/06 09:47:55;;;;;;;26.13;11.37;;;4.10;99.90;;;;;;5100443;28;20425;-75
2020/12/06 09:50:20;;;;;;;22.23;10.77;;;4.00;99.90;;;;;;5099931;28;20642;-75
2020/12/06 09:52:46;;;;;;;19.83;9.60;;;4.10;99.90;;;;;;5098511;28;20238;-75
2020/12/06 09:55:11;;;;;;;25.27;11.30;;;4.10;99.90;;;;;;5091822;28;20189;-76
2020/12/06 09:57:37;;;;;;;20.43;11.40;;;4.00;99.90;;;;;;5095172;28;20554;-79
2020/12/06 10:00:04;;;;;;;23.43;11.07;;;4.10;99.90;;;;;;5095959;28;20208;-75
2020/12/06 10:02:30;;;;;;;24.90;12.93;;;4.10;99.90;;;;;;5094934;28;20707;-79
2020/12/06 10:04:56;;;;;;;19.77;10.93;;;4.20;99.90;;;;;;5106976;27;20442;-75
2020/12/06 10:07:24;;;;;;;22.47;11.13;;;4.30;99.90;;;;;;5116828;27;20175;-76
2020/12/06 10:09:49;;;;;;;22.53;11.00;;;4.30;99.90;;;;;;5105328;28;20180;-76
2020/12/06 10:12:15;;;;;;;21.70;12.50;;;4.30;99.90;;;;;;5100481;28;20956;-76
2020/12/06 10:14:41;;;;;;;23.13;11.50;;;4.30;99.90;;;;;;5096430;27;20540;-75
2020/12/06 10:17:06;;;;;;;22.10;11.70;;;4.40;99.90;;;;;;5100408;27;20235;-75
2020/12/06 10:19:32;;;;;;;22.50;12.77;;;4.40;99.90;;;;;;5095596;28;20211;-75
2020/12/06 10:21:58;;;;;;;26.40;12.50;;;4.40;99.90;;;;;;5099481;28;20212;-75
2020/12/06 10:24:23;;;;;;;24.30;12.57;;;4.40;99.90;;;;;;5115718;27;20650;-74
2020/12/06 10:26:53;;;;;;;18.47;11.33;;;4.40;99.90;;;;;;5099597;28;20177;-78
2020/12/06 10:29:19;;;;;;;22.70;11.77;;;4.40;99.90;;;;;;5095710;28;20190;-75
2020/12/06 10:31:49;;;;;;;16.03;10.03;;;4.30;99.90;;;;;;5094801;28;20426;-75
2020/12/06 10:34:14;;;;;;;19.40;10.80;;;4.30;99.90;;;;;;5095586;28;20410;-76
2020/12/06 10:36:40;;;;;;;21.47;12.20;;;4.40;99.90;;;;;;5095616;28;20448;-75
2020/12/06 10:39:05;;;;;;;22.00;12.40;;;4.40;99.90;;;;;;5096742;28;20343;-74
2020/12/06 10:41:31;;;;;;;20.17;12.10;;;4.40;99.90;;;;;;5097391;28;20476;-78
2020/12/06 10:43:57;;;;;;;20.00;10.20;;;4.30;99.90;;;;;;5115130;27;20198;-79
2020/12/06 10:46:26;;;;;;;19.90;10.57;;;4.30;99.90;;;;;;5105939;27;20237;-79
2020/12/06 10:48:53;;;;;;;18.80;12.00;;;4.30;99.90;;;;;;5105338;27;20212;-75
2020/12/06 10:51:20;;;;;;;23.80;13.73;;;4.30;99.90;;;;;;5097056;28;20948;-75
2020/12/06 10:53:45;;;;;;;24.00;12.60;;;4.40;99.90;;;;;;5099764;28;20981;-76
2020/12/06 10:56:11;;;;;;;23.03;12.60;;;4.40;99.90;;;;;;5103207;28;20434;-77
2020/12/06 10:58:37;;;;;;;25.60;12.60;;;4.40;99.90;;;;;;5087211;28;20248;-75
2020/12/06 11:01:03;;;;;;;23.40;12.77;;;4.40;99.90;;;;;;5102900;27;20219;-75
2020/12/06 11:03:29;;;;;;;21.70;12.90;;;4.50;99.90;;;;;;5079550;28;20583;-77
2020/12/06 11:05:54;;;;;;;22.40;12.90;;;4.50;99.90;;;;;;5097231;27;20388;-75
2020/12/06 11:08:23;;;;;;;24.37;12.17;;;4.60;99.90;;;;;;5105661;27;20260;-74
2020/12/06 11:10:48;;;;;;;28.67;14.50;;;4.50;99.90;;;;;;5108269;27;20177;-75
2020/12/06 11:13:14;;;;;;;23.27;14.40;;;4.60;99.90;;;;;;5099825;27;20459;-75
2020/12/06 11:15:40;;;;;;;25.90;13.30;;;4.60;99.90;;;;;;5101583;27;20277;-81
2020/12/06 11:18:05;;;;;;;22.73;12.80;;;4.60;99.90;;;;;;5099515;27;20180;-79
2020/12/06 11:20:31;;;;;;;23.43;14.67;;;4.60;99.90;;;;;;5113483;27;20211;-79
2020/12/06 11:22:57;;;;;;;27.03;15.37;;;4.70;99.90;;;;;;5116383;27;20204;-79
2020/12/06 11:25:22;;;;;;;24.90;14.47;;;4.70;99.90;;;;;;5118162;27;20238;-75
2020/12/06 11:27:48;;;;;;;23.43;12.97;;;4.70;99.90;;;;;;5100173;27;20180;-79
2020/12/06 11:30:14;;;;;;;27.87;14.47;;;4.70;99.90;;;;;;5100321;28;20212;-75
2020/12/06 11:32:39;;;;;;;25.47;13.07;;;4.70;99.90;;;;;;5095248;28;20677;-76
2020/12/06 11:35:05;;;;;;;23.40;12.90;;;4.70;99.90;;;;;;5098054;28;20191;-80
2020/12/06 11:37:31;;;;;;;19.93;13.80;;;4.70;99.90;;;;;;5116797;27;20251;-75
2020/12/06 11:39:57;;;;;;;23.60;11.43;;;4.70;99.90;;;;;;5095845;28;20890;-79
2020/12/06 11:42:23;;;;;;;21.47;11.70;;;4.70;99.90;;;;;;5094909;28;20233;-79
2020/12/06 11:44:49;;;;;;;21.53;11.70;;;4.70;99.90;;;;;;5113334;28;20461;-75
2020/12/06 11:47:14;;;;;;;17.17;10.80;;;4.70;99.90;;;;;;5102198;27;20177;-75
2020/12/06 11:49:40;;;;;;;18.60;10.30;;;4.70;99.90;;;;;;5108857;27;20196;-75
2020/12/06 11:52:08;;;;;;;15.63;10.23;;;4.70;99.90;;;;;;5101211;28;20310;-75
2020/12/06 11:54:34;;;;;;;19.50;11.53;;;4.70;99.90;;;;;;5089853;27;20249;-75
2020/12/06 11:57:00;;;;;;;17.67;10.33;;;4.70;99.90;;;;;;5114784;27;20444;-79
2020/12/06 11:59:26;;;;;;;18.00;11.17;;;4.70;99.90;;;;;;5098603;28;20433;-77
2020/12/06 12:01:52;;;;;;;18.80;11.00;;;4.80;99.90;;;;;;5097917;28;20210;-76
2020/12/06 12:04:18;;;;;;;14.83;10.20;;;4.90;99.90;;;;;;5101955;28;20202;-79
2020/12/06 12:06:44;;;;;;;16.93;10.67;;;4.90;99.90;;;;;;5099977;28;20420;-79
2020/12/06 12:09:09;;;;;;;16.63;10.90;;;4.90;99.90;;;;;;5103393;27;20182;-76
2020/12/06 12:11:35;;;;;;;21.10;12.30;;;5.00;99.90;;;;;;5105096;28;20658;-77
2020/12/06 12:14:01;;;;;;;18.17;10.00;;;5.00;99.90;;;;;;5097809;28;20208;-75
2020/12/06 12:16:26;;;;;;;20.20;12.37;;;5.00;99.90;;;;;;5097165;27;20688;-76
2020/12/06 12:18:52;;;;;;;19.70;12.70;;;5.00;99.90;;;;;;5104306;27;20186;-80
2020/12/06 12:21:18;;;;;;;17.80;12.37;;;5.00;99.90;;;;;;5126070;27;20242;-76
2020/12/06 12:23:43;;;;;;;18.67;12.40;;;5.10;99.90;;;;;;5098990;27;20202;-76
2020/12/06 12:26:09;;;;;;;19.33;11.90;;;5.10;99.90;;;;;;5115431;27;20650;-79
2020/12/06 12:28:35;;;;;;;15.90;11.27;;;5.10;99.90;;;;;;5082131;27;20293;-76
2020/12/06 12:31:01;;;;;;;20.07;11.70;;;5.10;99.90;;;;;;5113785;27;20615;-76
2020/12/06 12:33:26;;;;;;;22.10;12.77;;;5.10;99.90;;;;;;5103348;27;20913;-76
2020/12/06 12:35:52;;;;;;;18.10;11.07;;;5.10;99.90;;;;;;5114173;27;20181;-79